sensor_id;sensor_type;location;lat;lon;timestamp;temperature;humidity
28244;DHT22;15510;52.512;13.300;2023-03-21T00:00:24;10.60;99.90
28244;DHT22;15510;52.512;13.300;2023-03-21T00:02:50;10.60;99.90
28244;DHT22;15510;52.512;13.300;2023-03-21T00:05:16;10.50;99.90
28244;DHT22;15510;52.512;13.300;2023-03-21T00:07:42;10.50;99.90
28244;DHT22;15510;52.512;13.300;2023-03-21T00:10:08;10.50;99.90
28244;DHT22;15510;52.512;13.300;2023-03-21T00:12:34;10.40;99.90
28244;DHT22;15510;52.512;13.300;2023-03-21T00:15:06;10.50;99.90
28244;DHT22;15510;52.512;13.300;2023-03-21T00:17:33;10.40;99.90
28244;DHT22;15510;52.512;13.300;2023-03-21T00:19:59;10.40;99.90
28244;DHT22;15510;52.512;13.300;2023-03-21T00:22:27;10.50;99.90
28244;DHT22;15510;52.512;13.300;2023-03-21T00:24:53;10.50;99.90
28244;DHT22;15510;52.512;13.300;2023-03-21T00:27:19;10.50;99.90
28244;DHT22;15510;52.512;13.300;2023-03-21T00:29:47;10.50;99.90
28244;DHT22;15510;52.512;13.300;2023-03-21T00:32:18;10.60;99.90
28244;DHT22;15510;52.512;13.300;2023-03-21T00:34:46;10.60;99.90
28244;DHT22;15510;52.512;13.300;2023-03-21T00:37:14;10.50;99.90
28244;DHT22;15510;52.512;13.300;2023-03-21T00:39:47;10.40;99.90
28244;DHT22;15510;52.512;13.300;2023-03-21T00:42:16;10.30;99.90
28244;DHT22;15510;52.512;13.300;2023-03-21T00:44:43;10.30;99.90
28244;DHT22;15510;52.512;13.300;2023-03-21T00:47:12;10.30;99.90
28244;DHT22;15510;52.512;13.300;2023-03-21T00:49:38;10.30;99.90
28244;DHT22;15510;52.512;13.300;2023-03-21T00:52:07;10.30;99.90
28244;DHT22;15510;52.512;13.300;2023-03-21T00:54:34;10.20;99.90
28244;DHT22;15510;52.512;13.300;2023-03-21T00:57:02;10.20;99.90
28244;DHT22;15510;52.512;13.300;2023-03-21T00:59:30;10.20;99.90
28244;DHT22;15510;52.512;13.300;2023-03-21T01:01:56;10.20;99.90
28244;DHT22;15510;52.512;13.300;2023-03-21T01:04:25;10.20;99.90
28244;DHT22;15510;52.512;13.300;2023-03-21T01:06:52;10.10;99.90
28244;DHT22;15510;52.512;13.300;2023-03-21T01:09:21;10.20;99.90
28244;DHT22;15510;52.512;13.300;2023-03-21T01:11:47;10.30;99.90
28244;DHT22;15510;52.512;13.300;2023-03-21T01:14:15;10.30;99.90
28244;DHT22;15510;52.512;13.300;2023-03-21T01:16:41;10.20;99.90
28244;DHT22;15510;52.512;13.300;2023-03-21T01:19:09;10.20;99.90
28244;DHT22;15510;52.512;13.300;2023-03-21T01:21:36;10.10;99.90
28244;DHT22;15510;52.512;13.300;2023-03-21T01:24:02;10.10;99.90
28244;DHT22;15510;52.512;13.300;2023-03-21T01:26:28;10.00;99.90
28244;DHT22;15510;52.512;13.300;2023-03-21T01:28:54;10.00;99.90
28244;DHT22;15510;52.512;13.300;2023-03-21T01:31:20;10.00;99.90
28244;DHT22;15510;52.512;13.300;2023-03-21T01:33:46;10.00;99.90
28244;DHT22;15510;52.512;13.300;2023-03-21T01:36:17;10.00;99.90
28244;DHT22;15510;52.512;13.300;2023-03-21T01:38:44;10.00;99.90
28244;DHT22;15510;52.512;13.300;2023-03-21T01:41:37;10.00;99.90
28244;DHT22;15510;52.512;13.300;2023-03-21T01:44:04;9.90;99.90
28244;DHT22;15510;52.512;13.300;2023-03-21T01:46:45;9.90;99.90
28244;DHT22;15510;52.512;13.300;2023-03-21T01:49:35;9.90;99.90
28244;DHT22;15510;52.512;13.300;2023-03-21T01:52:30;9.90;99.90
28244;DHT22;15510;52.512;13.300;2023-03-21T01:54:57;9.90;99.90
28244;DHT22;15510;52.512;13.300;2023-03-21T01:57:29;9.90;99.90
28244;DHT22;15510;52.512;13.300;2023-03-21T02:00:03;9.80;99.90
28244;DHT22;15510;52.512;13.300;2023-03-21T02:02:48;9.80;99.90
28244;DHT22;15510;52.512;13.300;2023-03-21T02:05:43;9.70;99.90
28244;DHT22;15510;52.512;13.300;2023-03-21T02:08:15;9.70;99.90
28244;DHT22;15510;52.512;13.300;2023-03-21T02:10:44;9.70;99.90
28244;DHT22;15510;52.512;13.300;2023-03-21T02:13:14;9.70;99.90
28244;DHT22;15510;52.512;13.300;2023-03-21T02:15:46;9.60;99.90
28244;DHT22;15510;52.512;13.300;2023-03-21T02:27:34;9.60;99.90
28244;DHT22;15510;52.512;13.300;2023-03-21T02:37:56;9.60;99.90
28244;DHT22;15510;52.512;13.300;2023-03-21T02:43:12;9.60;99.90
28244;DHT22;15510;52.512;13.300;2023-03-21T02:46:09;9.70;99.90
28244;DHT22;15510;52.512;13.300;2023-03-21T02:49:03;9.60;99.90
28244;DHT22;15510;52.512;13.300;2023-03-21T02:51:32;9.70;99.90
28244;DHT22;15510;52.512;13.300;2023-03-21T02:54:06;9.60;99.90
28244;DHT22;15510;52.512;13.300;2023-03-21T02:56:35;9.50;99.90
28244;DHT22;15510;52.512;13.300;2023-03-21T02:59:04;9.50;99.90
28244;DHT22;15510;52.512;13.300;2023-03-21T03:01:31;9.50;99.90
28244;DHT22;15510;52.512;13.300;2023-03-21T03:03:57;9.50;99.90
28244;DHT22;15510;52.512;13.300;2023-03-21T03:06:30;9.50;99.90
28244;DHT22;15510;52.512;13.300;2023-03-21T03:11:42;9.40;99.90
28244;DHT22;15510;52.512;13.300;2023-03-21T03:14:30;9.30;99.90
28244;DHT22;15510;52.512;13.300;2023-03-21T03:22:47;9.30;99.90
28244;DHT22;15510;52.512;13.300;2023-03-21T03:25:20;9.30;99.90
28244;DHT22;15510;52.512;13.300;2023-03-21T03:27:53;9.30;99.90
28244;DHT22;15510;52.512;13.300;2023-03-21T03:30:19;9.30;99.90
28244;DHT22;15510;52.512;13.300;2023-03-21T03:32:49;9.30;99.90
28244;DHT22;15510;52.512;13.300;2023-03-21T03:35:17;9.20;99.90
28244;DHT22;15510;52.512;13.300;2023-03-21T03:37:48;9.20;99.90
28244;DHT22;15510;52.512;13.300;2023-03-21T03:40:34;9.20;99.90
28244;DHT22;15510;52.512;13.300;2023-03-21T03:43:17;9.30;99.90
28244;DHT22;15510;52.512;13.300;2023-03-21T03:45:48;9.30;99.90
28244;DHT22;15510;52.512;13.300;2023-03-21T03:48:25;9.30;99.90
28244;DHT22;15510;52.512;13.300;2023-03-21T03:51:05;9.30;99.90
28244;DHT22;15510;52.512;13.300;2023-03-21T03:53:55;9.20;99.90
28244;DHT22;15510;52.512;13.300;2023-03-21T03:56:26;9.30;99.90
28244;DHT22;15510;52.512;13.300;2023-03-21T03:58:52;9.30;99.90
28244;DHT22;15510;52.512;13.300;2023-03-21T04:01:36;9.30;99.90
28244;DHT22;15510;52.512;13.300;2023-03-21T04:04:02;9.30;99.90
28244;DHT22;15510;52.512;13.300;2023-03-21T04:06:27;9.30;99.90
28244;DHT22;15510;52.512;13.300;2023-03-21T04:08:54;9.30;99.90
28244;DHT22;15510;52.512;13.300;2023-03-21T04:11:21;9.40;99.90
28244;DHT22;15510;52.512;13.300;2023-03-21T04:13:51;9.30;99.90
28244;DHT22;15510;52.512;13.300;2023-03-21T04:16:21;9.20;99.90
28244;DHT22;15510;52.512;13.300;2023-03-21T04:18:48;9.20;99.90
28244;DHT22;15510;52.512;13.300;2023-03-21T04:21:16;9.20;99.90
28244;DHT22;15510;52.512;13.300;2023-03-21T04:23:42;9.20;99.90
28244;DHT22;15510;52.512;13.300;2023-03-21T04:26:08;9.20;99.90
28244;DHT22;15510;52.512;13.300;2023-03-21T04:28:39;9.20;99.90
28244;DHT22;15510;52.512;13.300;2023-03-21T04:31:23;9.20;99.90
28244;DHT22;15510;52.512;13.300;2023-03-21T04:34:00;9.20;99.90
28244;DHT22;15510;52.512;13.300;2023-03-21T04:36:27;9.20;99.90
28244;DHT22;15510;52.512;13.300;2023-03-21T04:39:05;9.20;99.90
28244;DHT22;15510;52.512;13.300;2023-03-21T04:41:37;9.20;99.90
28244;DHT22;15510;52.512;13.300;2023-03-21T04:44:04;9.20;99.90
28244;DHT22;15510;52.512;13.300;2023-03-21T04:46:29;9.20;99.90
28244;DHT22;15510;52.512;13.300;2023-03-21T04:48:55;9.10;99.90
28244;DHT22;15510;52.512;13.300;2023-03-21T04:51:21;9.10;99.90
28244;DHT22;15510;52.512;13.300;2023-03-21T04:53:47;9.10;99.90
28244;DHT22;15510;52.512;13.300;2023-03-21T04:56:14;9.10;99.90
28244;DHT22;15510;52.512;13.300;2023-03-21T04:58:41;9.00;99.90
28244;DHT22;15510;52.512;13.300;2023-03-21T05:01:07;9.00;99.90
28244;DHT22;15510;52.512;13.300;2023-03-21T05:03:34;9.10;99.90
28244;DHT22;15510;52.512;13.300;2023-03-21T05:06:05;9.10;99.90
28244;DHT22;15510;52.512;13.300;2023-03-21T05:08:34;9.10;99.90
28244;DHT22;15510;52.512;13.300;2023-03-21T05:11:01;9.10;99.90
28244;DHT22;15510;52.512;13.300;2023-03-21T05:13:27;9.10;99.90
28244;DHT22;15510;52.512;13.300;2023-03-21T05:15:53;9.10;99.90
28244;DHT22;15510;52.512;13.300;2023-03-21T05:18:19;9.00;99.90
28244;DHT22;15510;52.512;13.300;2023-03-21T05:21:00;9.00;99.90
28244;DHT22;15510;52.512;13.300;2023-03-21T05:23:29;9.00;99.90
28244;DHT22;15510;52.512;13.300;2023-03-21T05:25:56;9.00;99.90
28244;DHT22;15510;52.512;13.300;2023-03-21T05:28:55;9.00;99.90
28244;DHT22;15510;52.512;13.300;2023-03-21T05:31:21;9.00;99.90
28244;DHT22;15510;52.512;13.300;2023-03-21T05:33:51;8.90;99.90
28244;DHT22;15510;52.512;13.300;2023-03-21T05:36:19;8.90;99.90
28244;DHT22;15510;52.512;13.300;2023-03-21T05:38:45;8.80;99.90
28244;DHT22;15510;52.512;13.300;2023-03-21T05:41:12;8.90;99.90
28244;DHT22;15510;52.512;13.300;2023-03-21T05:43:38;8.80;99.90
28244;DHT22;15510;52.512;13.300;2023-03-21T05:46:04;8.90;99.90
28244;DHT22;15510;52.512;13.300;2023-03-21T05:48:30;8.90;99.90
28244;DHT22;15510;52.512;13.300;2023-03-21T05:51:08;8.90;99.90
28244;DHT22;15510;52.512;13.300;2023-03-21T05:53:34;8.90;99.90
28244;DHT22;15510;52.512;13.300;2023-03-21T05:55:59;9.00;99.90
28244;DHT22;15510;52.512;13.300;2023-03-21T05:58:51;9.00;99.90
28244;DHT22;15510;52.512;13.300;2023-03-21T06:01:18;9.10;99.90
28244;DHT22;15510;52.512;13.300;2023-03-21T06:03:52;9.10;99.90
28244;DHT22;15510;52.512;13.300;2023-03-21T06:06:22;9.10;99.90
28244;DHT22;15510;52.512;13.300;2023-03-21T06:08:53;9.10;99.90
28244;DHT22;15510;52.512;13.300;2023-03-21T06:11:26;9.10;99.90
28244;DHT22;15510;52.512;13.300;2023-03-21T06:14:09;9.10;99.90
28244;DHT22;15510;52.512;13.300;2023-03-21T06:16:36;9.20;99.90
28244;DHT22;15510;52.512;13.300;2023-03-21T06:19:02;9.10;99.90
28244;DHT22;15510;52.512;13.300;2023-03-21T06:21:54;9.20;99.90
28244;DHT22;15510;52.512;13.300;2023-03-21T06:24:20;9.20;99.90
28244;DHT22;15510;52.512;13.300;2023-03-21T06:26:47;9.30;99.90
28244;DHT22;15510;52.512;13.300;2023-03-21T06:29:13;9.30;99.90
28244;DHT22;15510;52.512;13.300;2023-03-21T06:31:45;9.30;99.90
28244;DHT22;15510;52.512;13.300;2023-03-21T06:34:11;9.40;99.90
28244;DHT22;15510;52.512;13.300;2023-03-21T06:36:37;9.40;99.90
28244;DHT22;15510;52.512;13.300;2023-03-21T06:39:04;9.30;99.90
28244;DHT22;15510;52.512;13.300;2023-03-21T06:41:32;9.40;99.90
28244;DHT22;15510;52.512;13.300;2023-03-21T06:44:02;9.40;99.90
28244;DHT22;15510;52.512;13.300;2023-03-21T06:46:32;9.40;99.90
28244;DHT22;15510;52.512;13.300;2023-03-21T06:48:58;9.30;99.90
28244;DHT22;15510;52.512;13.300;2023-03-21T06:51:24;9.40;99.90
28244;DHT22;15510;52.512;13.300;2023-03-21T06:54:01;9.40;99.90
28244;DHT22;15510;52.512;13.300;2023-03-21T06:56:37;9.30;99.90
28244;DHT22;15510;52.512;13.300;2023-03-21T06:59:04;9.30;99.90
28244;DHT22;15510;52.512;13.300;2023-03-21T07:01:48;9.20;99.90
28244;DHT22;15510;52.512;13.300;2023-03-21T07:04:15;9.20;99.90
28244;DHT22;15510;52.512;13.300;2023-03-21T07:06:40;9.30;99.90
28244;DHT22;15510;52.512;13.300;2023-03-21T07:09:07;9.50;99.90
28244;DHT22;15510;52.512;13.300;2023-03-21T07:11:34;9.50;99.90
28244;DHT22;15510;52.512;13.300;2023-03-21T07:14:02;9.50;99.90
28244;DHT22;15510;52.512;13.300;2023-03-21T07:16:28;9.50;99.90
28244;DHT22;15510;52.512;13.300;2023-03-21T07:18:54;9.60;99.90
28244;DHT22;15510;52.512;13.300;2023-03-21T07:21:20;9.60;99.90
28244;DHT22;15510;52.512;13.300;2023-03-21T07:23:46;9.70;99.90
28244;DHT22;15510;52.512;13.300;2023-03-21T07:26:12;9.70;99.90
28244;DHT22;15510;52.512;13.300;2023-03-21T07:28:38;9.80;99.90
28244;DHT22;15510;52.512;13.300;2023-03-21T07:31:06;9.80;99.90
28244;DHT22;15510;52.512;13.300;2023-03-21T07:33:33;9.80;99.90
28244;DHT22;15510;52.512;13.300;2023-03-21T07:36:01;9.90;99.90
28244;DHT22;15510;52.512;13.300;2023-03-21T07:38:27;9.90;99.90
28244;DHT22;15510;52.512;13.300;2023-03-21T07:40:58;9.90;99.90
28244;DHT22;15510;52.512;13.300;2023-03-21T07:43:24;9.80;99.90
28244;DHT22;15510;52.512;13.300;2023-03-21T07:45:56;9.90;99.90
28244;DHT22;15510;52.512;13.300;2023-03-21T07:48:21;10.00;99.90
28244;DHT22;15510;52.512;13.300;2023-03-21T07:50:48;10.00;99.90
28244;DHT22;15510;52.512;13.300;2023-03-21T07:53:14;10.00;99.90
28244;DHT22;15510;52.512;13.300;2023-03-21T07:55:40;10.00;99.90
28244;DHT22;15510;52.512;13.300;2023-03-21T07:58:05;10.00;99.90
28244;DHT22;15510;52.512;13.300;2023-03-21T08:00:32;9.90;99.90
28244;DHT22;15510;52.512;13.300;2023-03-21T08:02:58;10.00;99.90
28244;DHT22;15510;52.512;13.300;2023-03-21T08:05:29;10.10;99.90
28244;DHT22;15510;52.512;13.300;2023-03-21T08:07:57;10.10;99.90
28244;DHT22;15510;52.512;13.300;2023-03-21T08:10:24;10.20;99.90
28244;DHT22;15510;52.512;13.300;2023-03-21T08:12:49;10.20;99.90
28244;DHT22;15510;52.512;13.300;2023-03-21T08:15:15;10.10;99.90
28244;DHT22;15510;52.512;13.300;2023-03-21T08:17:41;10.10;99.90
28244;DHT22;15510;52.512;13.300;2023-03-21T08:20:15;10.20;99.90
28244;DHT22;15510;52.512;13.300;2023-03-21T08:22:41;10.20;99.90
28244;DHT22;15510;52.512;13.300;2023-03-21T08:25:10;10.20;99.90
28244;DHT22;15510;52.512;13.300;2023-03-21T08:27:39;10.30;99.90
28244;DHT22;15510;52.512;13.300;2023-03-21T08:30:06;10.30;99.90
28244;DHT22;15510;52.512;13.300;2023-03-21T08:32:32;10.30;99.90
28244;DHT22;15510;52.512;13.300;2023-03-21T08:34:59;10.20;99.90
28244;DHT22;15510;52.512;13.300;2023-03-21T08:37:26;10.20;99.90
28244;DHT22;15510;52.512;13.300;2023-03-21T08:39:52;10.20;99.90
28244;DHT22;15510;52.512;13.300;2023-03-21T08:42:19;10.30;99.90
28244;DHT22;15510;52.512;13.300;2023-03-21T08:44:46;10.40;99.90
28244;DHT22;15510;52.512;13.300;2023-03-21T08:47:11;10.60;99.90
28244;DHT22;15510;52.512;13.300;2023-03-21T08:49:37;10.70;99.90
28244;DHT22;15510;52.512;13.300;2023-03-21T08:52:03;10.70;99.90
28244;DHT22;15510;52.512;13.300;2023-03-21T08:54:30;10.70;99.90
28244;DHT22;15510;52.512;13.300;2023-03-21T08:56:56;10.70;99.90
28244;DHT22;15510;52.512;13.300;2023-03-21T08:59:22;10.70;99.90
28244;DHT22;15510;52.512;13.300;2023-03-21T09:01:48;10.80;99.90
28244;DHT22;15510;52.512;13.300;2023-03-21T09:04:13;10.80;99.90
28244;DHT22;15510;52.512;13.300;2023-03-21T09:06:40;10.80;99.90
28244;DHT22;15510;52.512;13.300;2023-03-21T09:09:12;10.80;99.90
28244;DHT22;15510;52.512;13.300;2023-03-21T09:11:38;10.90;99.90
28244;DHT22;15510;52.512;13.300;2023-03-21T09:14:04;11.00;99.90
28244;DHT22;15510;52.512;13.300;2023-03-21T09:16:30;11.10;99.90
28244;DHT22;15510;52.512;13.300;2023-03-21T09:18:57;11.00;99.90
28244;DHT22;15510;52.512;13.300;2023-03-21T09:21:24;11.10;99.90
28244;DHT22;15510;52.512;13.300;2023-03-21T09:23:52;11.10;99.90
28244;DHT22;15510;52.512;13.300;2023-03-21T09:26:19;11.10;99.90
28244;DHT22;15510;52.512;13.300;2023-03-21T09:28:46;11.10;99.90
28244;DHT22;15510;52.512;13.300;2023-03-21T09:31:12;11.10;99.90
28244;DHT22;15510;52.512;13.300;2023-03-21T09:33:41;11.10;99.90
28244;DHT22;15510;52.512;13.300;2023-03-21T09:36:09;11.10;99.90
28244;DHT22;15510;52.512;13.300;2023-03-21T09:38:48;11.10;99.90
28244;DHT22;15510;52.512;13.300;2023-03-21T09:41:30;11.20;99.90
28244;DHT22;15510;52.512;13.300;2023-03-21T09:49:38;11.20;99.90
28244;DHT22;15510;52.512;13.300;2023-03-21T09:52:12;11.20;99.90
28244;DHT22;15510;52.512;13.300;2023-03-21T09:54:41;11.20;99.90
28244;DHT22;15510;52.512;13.300;2023-03-21T10:00:01;11.20;99.90
28244;DHT22;15510;52.512;13.300;2023-03-21T10:05:28;11.40;99.90
28244;DHT22;15510;52.512;13.300;2023-03-21T10:10:55;11.70;99.90
28244;DHT22;15510;52.512;13.300;2023-03-21T10:13:55;11.70;99.90
28244;DHT22;15510;52.512;13.300;2023-03-21T10:16:31;11.80;99.90
28244;DHT22;15510;52.512;13.300;2023-03-21T10:18:59;11.90;99.90
28244;DHT22;15510;52.512;13.300;2023-03-21T10:21:27;11.80;99.90
28244;DHT22;15510;52.512;13.300;2023-03-21T10:23:55;11.90;99.90
28244;DHT22;15510;52.512;13.300;2023-03-21T10:26:24;11.80;99.90
28244;DHT22;15510;52.512;13.300;2023-03-21T10:28:55;12.00;99.90
28244;DHT22;15510;52.512;13.300;2023-03-21T10:31:24;12.10;99.90
28244;DHT22;15510;52.512;13.300;2023-03-21T10:33:52;12.30;99.90
28244;DHT22;15510;52.512;13.300;2023-03-21T10:36:26;12.30;99.90
28244;DHT22;15510;52.512;13.300;2023-03-21T10:39:31;12.40;99.90
28244;DHT22;15510;52.512;13.300;2023-03-21T10:41:58;12.50;99.90
28244;DHT22;15510;52.512;13.300;2023-03-21T10:44:32;12.60;99.90
28244;DHT22;15510;52.512;13.300;2023-03-21T10:47:04;12.70;99.90
28244;DHT22;15510;52.512;13.300;2023-03-21T10:49:31;12.70;99.90
28244;DHT22;15510;52.512;13.300;2023-03-21T10:51:59;12.70;99.90
28244;DHT22;15510;52.512;13.300;2023-03-21T10:54:31;12.70;99.90
28244;DHT22;15510;52.512;13.300;2023-03-21T10:57:02;12.60;99.90
28244;DHT22;15510;52.512;13.300;2023-03-21T10:59:37;12.60;99.90
28244;DHT22;15510;52.512;13.300;2023-03-21T11:02:05;12.60;99.90
28244;DHT22;15510;52.512;13.300;2023-03-21T11:04:31;12.60;99.90
28244;DHT22;15510;52.512;13.300;2023-03-21T11:07:04;12.40;99.90
28244;DHT22;15510;52.512;13.300;2023-03-21T11:10:11;12.50;99.90
28244;DHT22;15510;52.512;13.300;2023-03-21T11:12:39;12.60;99.90
28244;DHT22;15510;52.512;13.300;2023-03-21T11:17:51;12.60;99.90
28244;DHT22;15510;52.512;13.300;2023-03-21T11:20:18;12.80;99.90
28244;DHT22;15510;52.512;13.300;2023-03-21T11:22:45;12.80;99.90
28244;DHT22;15510;52.512;13.300;2023-03-21T11:25:36;12.90;99.90
28244;DHT22;15510;52.512;13.300;2023-03-21T11:28:11;12.90;99.90
28244;DHT22;15510;52.512;13.300;2023-03-21T11:30:49;12.90;99.90
28244;DHT22;15510;52.512;13.300;2023-03-21T11:33:18;12.90;99.90
28244;DHT22;15510;52.512;13.300;2023-03-21T11:35:57;13.00;99.90
28244;DHT22;15510;52.512;13.300;2023-03-21T11:38:28;13.10;99.90
28244;DHT22;15510;52.512;13.300;2023-03-21T11:40:58;13.30;99.90
28244;DHT22;15510;52.512;13.300;2023-03-21T11:43:35;13.50;99.90
28244;DHT22;15510;52.512;13.300;2023-03-21T11:46:05;13.60;99.90
28244;DHT22;15510;52.512;13.300;2023-03-21T11:48:38;13.60;99.90
28244;DHT22;15510;52.512;13.300;2023-03-21T11:54:11;13.90;99.90
28244;DHT22;15510;52.512;13.300;2023-03-21T11:56:44;14.10;99.90
28244;DHT22;15510;52.512;13.300;2023-03-21T11:59:32;14.20;99.90
28244;DHT22;15510;52.512;13.300;2023-03-21T12:07:52;14.20;99.90
28244;DHT22;15510;52.512;13.300;2023-03-21T12:10:30;14.10;99.90
28244;DHT22;15510;52.512;13.300;2023-03-21T12:26:35;14.60;99.90
28244;DHT22;15510;52.512;13.300;2023-03-21T12:45:31;14.10;99.90
28244;DHT22;15510;52.512;13.300;2023-03-21T12:51:09;13.80;99.90
28244;DHT22;15510;52.512;13.300;2023-03-21T12:56:46;13.70;99.90
28244;DHT22;15510;52.512;13.300;2023-03-21T12:59:35;13.80;99.90
28244;DHT22;15510;52.512;13.300;2023-03-21T13:02:27;13.90;99.90
28244;DHT22;15510;52.512;13.300;2023-03-21T13:07:33;14.00;99.90
28244;DHT22;15510;52.512;13.300;2023-03-21T13:10:01;14.10;99.90
28244;DHT22;15510;52.512;13.300;2023-03-21T13:20:57;13.80;99.90
28244;DHT22;15510;52.512;13.300;2023-03-21T13:23:33;13.80;99.90
28244;DHT22;15510;52.512;13.300;2023-03-21T13:26:00;13.80;99.90
28244;DHT22;15510;52.512;13.300;2023-03-21T13:28:28;13.60;99.90
28244;DHT22;15510;52.512;13.300;2023-03-21T13:31:22;13.60;99.90
28244;DHT22;15510;52.512;13.300;2023-03-21T13:33:51;13.50;99.90
28244;DHT22;15510;52.512;13.300;2023-03-21T13:36:27;13.30;99.90
28244;DHT22;15510;52.512;13.300;2023-03-21T13:38:58;13.30;99.90
28244;DHT22;15510;52.512;13.300;2023-03-21T13:41:33;13.30;99.90
28244;DHT22;15510;52.512;13.300;2023-03-21T13:56:49;13.50;99.90
28244;DHT22;15510;52.512;13.300;2023-03-21T13:59:35;13.50;99.90
28244;DHT22;15510;52.512;13.300;2023-03-21T14:02:26;13.40;99.90
28244;DHT22;15510;52.512;13.300;2023-03-21T14:05:02;13.30;99.90
28244;DHT22;15510;52.512;13.300;2023-03-21T14:10:02;13.40;99.90
28244;DHT22;15510;52.512;13.300;2023-03-21T14:12:33;13.40;99.90
28244;DHT22;15510;52.512;13.300;2023-03-21T14:15:07;13.50;99.90
28244;DHT22;15510;52.512;13.300;2023-03-21T14:17:34;13.40;99.90
28244;DHT22;15510;52.512;13.300;2023-03-21T14:22:38;13.50;99.90
28244;DHT22;15510;52.512;13.300;2023-03-21T14:25:16;13.50;99.90
28244;DHT22;15510;52.512;13.300;2023-03-21T14:27:45;13.50;99.90
28244;DHT22;15510;52.512;13.300;2023-03-21T14:30:20;13.40;99.90
28244;DHT22;15510;52.512;13.300;2023-03-21T14:32:47;13.50;99.90
28244;DHT22;15510;52.512;13.300;2023-03-21T14:35:13;13.50;99.90
28244;DHT22;15510;52.512;13.300;2023-03-21T14:37:41;13.70;99.90
28244;DHT22;15510;52.512;13.300;2023-03-21T14:40:27;13.70;99.90
28244;DHT22;15510;52.512;13.300;2023-03-21T14:42:54;13.80;99.90
28244;DHT22;15510;52.512;13.300;2023-03-21T14:45:26;13.90;99.90
28244;DHT22;15510;52.512;13.300;2023-03-21T14:50:33;13.80;99.90
28244;DHT22;15510;52.512;13.300;2023-03-21T14:53:01;13.70;99.90
28244;DHT22;15510;52.512;13.300;2023-03-21T14:55:27;13.70;99.90
28244;DHT22;15510;52.512;13.300;2023-03-21T14:57:54;13.80;99.90
28244;DHT22;15510;52.512;13.300;2023-03-21T15:00:29;13.80;99.90
28244;DHT22;15510;52.512;13.300;2023-03-21T15:02:57;13.70;99.90
28244;DHT22;15510;52.512;13.300;2023-03-21T15:05:30;13.70;99.90
28244;DHT22;15510;52.512;13.300;2023-03-21T15:08:22;13.70;99.90
28244;DHT22;15510;52.512;13.300;2023-03-21T15:10:55;13.70;99.90
28244;DHT22;15510;52.512;13.300;2023-03-21T15:14:02;13.60;99.90
28244;DHT22;15510;52.512;13.300;2023-03-21T15:16:21;13.70;99.90
28244;DHT22;15510;52.512;13.300;2023-03-21T15:18:47;13.70;99.90
28244;DHT22;15510;52.512;13.300;2023-03-21T15:21:21;13.60;99.90
28244;DHT22;15510;52.512;13.300;2023-03-21T15:23:55;13.60;99.90
28244;DHT22;15510;52.512;13.300;2023-03-21T15:26:24;13.60;99.90
28244;DHT22;15510;52.512;13.300;2023-03-21T15:28:59;13.50;99.90
28244;DHT22;15510;52.512;13.300;2023-03-21T15:31:34;13.50;99.90
28244;DHT22;15510;52.512;13.300;2023-03-21T15:34:00;13.40;99.90
28244;DHT22;15510;52.512;13.300;2023-03-21T15:36:31;13.50;99.90
28244;DHT22;15510;52.512;13.300;2023-03-21T15:39:00;13.50;99.90
28244;DHT22;15510;52.512;13.300;2023-03-21T15:41:28;13.50;99.90
28244;DHT22;15510;52.512;13.300;2023-03-21T15:44:04;13.50;99.90
28244;DHT22;15510;52.512;13.300;2023-03-21T15:46:45;13.50;99.90
28244;DHT22;15510;52.512;13.300;2023-03-21T15:54:25;13.30;99.90
28244;DHT22;15510;52.512;13.300;2023-03-21T15:56:56;13.20;99.90
28244;DHT22;15510;52.512;13.300;2023-03-21T15:59:29;13.10;99.90
28244;DHT22;15510;52.512;13.300;2023-03-21T16:01:56;13.00;99.90
28244;DHT22;15510;52.512;13.300;2023-03-21T16:04:22;13.00;99.90
28244;DHT22;15510;52.512;13.300;2023-03-21T16:06:55;12.90;99.90
28244;DHT22;15510;52.512;13.300;2023-03-21T16:09:21;12.90;99.90
28244;DHT22;15510;52.512;13.300;2023-03-21T16:11:55;12.90;99.90
28244;DHT22;15510;52.512;13.300;2023-03-21T16:14:22;12.90;99.90
28244;DHT22;15510;52.512;13.300;2023-03-21T16:16:49;12.90;99.90
28244;DHT22;15510;52.512;13.300;2023-03-21T16:19:16;12.90;99.90
28244;DHT22;15510;52.512;13.300;2023-03-21T16:21:42;12.90;99.90
28244;DHT22;15510;52.512;13.300;2023-03-21T16:24:09;12.90;99.90
28244;DHT22;15510;52.512;13.300;2023-03-21T16:26:37;12.90;99.90
28244;DHT22;15510;52.512;13.300;2023-03-21T16:29:04;12.80;99.90
28244;DHT22;15510;52.512;13.300;2023-03-21T16:31:33;12.80;99.90
28244;DHT22;15510;52.512;13.300;2023-03-21T16:33:59;12.80;99.90
28244;DHT22;15510;52.512;13.300;2023-03-21T16:36:31;12.80;99.90
28244;DHT22;15510;52.512;13.300;2023-03-21T16:38:58;12.80;99.90
28244;DHT22;15510;52.512;13.300;2023-03-21T16:41:25;12.80;99.90
28244;DHT22;15510;52.512;13.300;2023-03-21T16:43:51;12.80;99.90
28244;DHT22;15510;52.512;13.300;2023-03-21T16:46:21;12.90;99.90
28244;DHT22;15510;52.512;13.300;2023-03-21T16:48:49;12.90;99.90
28244;DHT22;15510;52.512;13.300;2023-03-21T16:51:23;12.90;99.90
28244;DHT22;15510;52.512;13.300;2023-03-21T16:53:52;12.90;99.90
28244;DHT22;15510;52.512;13.300;2023-03-21T16:56:26;12.90;99.90
28244;DHT22;15510;52.512;13.300;2023-03-21T16:58:56;12.90;99.90
28244;DHT22;15510;52.512;13.300;2023-03-21T17:01:23;12.90;99.90
28244;DHT22;15510;52.512;13.300;2023-03-21T17:03:51;12.90;99.90
28244;DHT22;15510;52.512;13.300;2023-03-21T17:06:20;12.90;99.90
28244;DHT22;15510;52.512;13.300;2023-03-21T17:08:47;13.00;99.90
28244;DHT22;15510;52.512;13.300;2023-03-21T17:11:15;13.00;99.90
28244;DHT22;15510;52.512;13.300;2023-03-21T17:13:42;13.00;99.90
28244;DHT22;15510;52.512;13.300;2023-03-21T17:16:12;13.00;99.90
28244;DHT22;15510;52.512;13.300;2023-03-21T17:18:38;12.90;99.90
28244;DHT22;15510;52.512;13.300;2023-03-21T17:21:19;12.90;99.90
28244;DHT22;15510;52.512;13.300;2023-03-21T17:23:45;13.00;99.90
28244;DHT22;15510;52.512;13.300;2023-03-21T17:26:23;12.90;99.90
28244;DHT22;15510;52.512;13.300;2023-03-21T17:28:49;12.90;99.90
28244;DHT22;15510;52.512;13.300;2023-03-21T17:31:17;12.80;99.90
28244;DHT22;15510;52.512;13.300;2023-03-21T17:33:44;12.80;99.90
28244;DHT22;15510;52.512;13.300;2023-03-21T17:36:18;12.80;99.90
28244;DHT22;15510;52.512;13.300;2023-03-21T17:38:45;12.70;99.90
28244;DHT22;15510;52.512;13.300;2023-03-21T17:41:12;12.70;99.90
28244;DHT22;15510;52.512;13.300;2023-03-21T17:43:39;12.70;99.90
28244;DHT22;15510;52.512;13.300;2023-03-21T17:46:05;12.70;99.90
28244;DHT22;15510;52.512;13.300;2023-03-21T17:48:31;12.70;99.90
28244;DHT22;15510;52.512;13.300;2023-03-21T17:50:56;12.70;99.90